Startpagina
METAR-TAF:

METAR-TAF

Vliegvelden :

Québec, Québec, Canada

breedte: 46-48N, lengte: 071-23W, hoogte: 70 m

Actueel weer

Dit bericht is 20 minuten geleden gemaakt, om 12:00 UTC
Wind 3 kt uit het westen
Temperatuur 3°C
Vochtigheid 87%
Druk 1023 hPa
Zicht: 48.3 km
Weinig wolken op 8000 ft
Verspreide wolken op 22000 ft

METAR: CYQB 211200Z 28003KT 30SM FEW080 SCT220 03/01 A3022 RMK AC2CI1 SLP239

Tijdstip: 08:20 (12:20 UTC)

Verwachting

Dit bericht is 41 minuten geleden gemaakt, om 11:39 UTC
Verwachting geldig van 21 om 12 UTC tot 22 om 12 UTC
Wind 3 kt uit variabele richting
Zicht: 10 km
Weinig wolken op 22000 ft
Wijzigt naar
van 21 om 15 UTC tot 21 om 17 UTC
Wind 7 kt uit het oosten
Van 21 om 2000 UTC
Wind 8 kt uit het oostnoordoosten
Zicht: 10 km
Verspreide wolken op 5000 ft
Van 22 om 0300 UTC
Wind 8 kt uit het noordoosten
Zicht: 10 km
Gebroken wolken op 16000 ft

TAF: CYQB 211139Z 2112/2212 VRB03KT P6SM FEW220 BECMG 2115/2117 09007KT FM212000 07008KT P6SM SCT050 FM220300 05008KT P6SM BKN160 RMK NXT FCST BY 211800Z

Waarnemingen en weersverwachtingen van meer dan 4000 vliegvelden (METAR en TAF).

De beschikbare stations zijn de gele en rode punten op de kaart.

Ga met uw muis naar het station om de naam te zien.

Klik dan om waarnemingen en weersverwachtingen te zien.

kaart wijzigen: klik op de groene knoppen met een zwart kruis om in te zoomen, op de groene knop met een streepje om uit te zoomen of op de groene pijlen voor aangrenzende kaarten.


METAR-TAF: